sensor_id;sensor_type;location;lat;lon;timestamp;pressure;altitude;pressure_sealevel;temperature;humidity
84283;BME280;74440;52.600;21.450;2024-01-30T00:03:46;103300;;;1.07;78
84283;BME280;74440;52.600;21.450;2024-01-30T00:08:04;103300;;;1.08;78
84283;BME280;74440;52.600;21.450;2024-01-30T00:12:06;103300;;;0.95;78
84283;BME280;74440;52.600;21.450;2024-01-30T00:16:08;103300;;;1.01;77
84283;BME280;74440;52.600;21.450;2024-01-30T00:20:10;103300;;;1.06;77
84283;BME280;74440;52.600;21.450;2024-01-30T00:24:12;103300;;;1.13;77
84283;BME280;74440;52.600;21.450;2024-01-30T00:28:13;103300;;;0.96;77
84283;BME280;74440;52.600;21.450;2024-01-30T00:32:15;103300;;;0.98;77
84283;BME280;74440;52.600;21.450;2024-01-30T00:36:16;103300;;;1.06;77
84283;BME280;74440;52.600;21.450;2024-01-30T00:40:18;103300;;;1.10;77
84283;BME280;74440;52.600;21.450;2024-01-30T00:44:35;103300;;;1.12;77
84283;BME280;74440;52.600;21.450;2024-01-30T00:48:39;103300;;;0.96;77
84283;BME280;74440;52.600;21.450;2024-01-30T00:52:41;103300;;;1.02;77
84283;BME280;74440;52.600;21.450;2024-01-30T00:56:46;103300;;;1.05;77
84283;BME280;74440;52.600;21.450;2024-01-30T01:00:47;103300;;;1.10;77
84283;BME280;74440;52.600;21.450;2024-01-30T01:05:05;103300;;;1.10;77
84283;BME280;74440;52.600;21.450;2024-01-30T01:09:06;103300;;;0.92;77
84283;BME280;74440;52.600;21.450;2024-01-30T01:13:08;103300;;;0.96;77
84283;BME280;74440;52.600;21.450;2024-01-30T01:17:09;103300;;;0.99;77
84283;BME280;74440;52.600;21.450;2024-01-30T01:21:11;103300;;;1.04;77
84283;BME280;74440;52.600;21.450;2024-01-30T01:25:13;103300;;;0.84;77
84283;BME280;74440;52.600;21.450;2024-01-30T01:29:14;103300;;;0.89;77
84283;BME280;74440;52.600;21.450;2024-01-30T01:33:17;103300;;;0.91;77
84283;BME280;74440;52.600;21.450;2024-01-30T01:37:19;103300;;;0.97;77
84283;BME280;74440;52.600;21.450;2024-01-30T01:41:34;103300;;;0.97;77
84283;BME280;74440;52.600;21.450;2024-01-30T01:45:36;103300;;;0.82;77
84283;BME280;74440;52.600;21.450;2024-01-30T01:49:37;103300;;;0.84;77
84283;BME280;74440;52.600;21.450;2024-01-30T01:53:39;103300;;;0.86;77
84283;BME280;74440;52.600;21.450;2024-01-30T01:57:41;103300;;;0.93;77
84283;BME280;74440;52.600;21.450;2024-01-30T02:01:43;103300;;;0.73;77
84283;BME280;74440;52.600;21.450;2024-01-30T02:05:50;103300;;;0.71;77
84283;BME280;74440;52.600;21.450;2024-01-30T02:09:52;103300;;;0.71;77
84283;BME280;74440;52.600;21.450;2024-01-30T02:13:54;103300;;;0.75;77
84283;BME280;74440;52.600;21.450;2024-01-30T02:18:04;103300;;;0.72;77
84283;BME280;74440;52.600;21.450;2024-01-30T02:22:07;103300;;;0.58;77
84283;BME280;74440;52.600;21.450;2024-01-30T02:26:08;103300;;;0.58;77
84283;BME280;74440;52.600;21.450;2024-01-30T02:30:11;103300;;;0.63;77
84283;BME280;74440;52.600;21.450;2024-01-30T02:34:13;103300;;;0.67;77
84283;BME280;74440;52.600;21.450;2024-01-30T02:38:18;103300;;;0.48;77
84283;BME280;74440;52.600;21.450;2024-01-30T02:42:19;103300;;;0.50;77
84283;BME280;74440;52.600;21.450;2024-01-30T02:46:21;103300;;;0.50;77
84283;BME280;74440;52.600;21.450;2024-01-30T02:50:23;103300;;;0.57;77
84283;BME280;74440;52.600;21.450;2024-01-30T02:54:34;103300;;;0.57;77
84283;BME280;74440;52.600;21.450;2024-01-30T02:58:36;103300;;;0.43;77
84283;BME280;74440;52.600;21.450;2024-01-30T03:02:38;103300;;;0.46;77
84283;BME280;74440;52.600;21.450;2024-01-30T03:06:45;103300;;;0.48;77
84283;BME280;74440;52.600;21.450;2024-01-30T03:10:50;103300;;;0.53;77
84283;BME280;74440;52.600;21.450;2024-01-30T03:15:06;103300;;;0.55;77
84283;BME280;74440;52.600;21.450;2024-01-30T03:19:08;103300;;;0.43;77
84283;BME280;74440;52.600;21.450;2024-01-30T03:23:10;103300;;;0.47;77
84283;BME280;74440;52.600;21.450;2024-01-30T03:27:11;103300;;;0.50;77
84283;BME280;74440;52.600;21.450;2024-01-30T03:31:15;103300;;;0.57;77
84283;BME280;74440;52.600;21.450;2024-01-30T03:35:18;103300;;;0.39;77
84283;BME280;74440;52.600;21.450;2024-01-30T03:39:20;103300;;;0.41;77
84283;BME280;74440;52.600;21.450;2024-01-30T03:43:21;103300;;;0.44;77
84283;BME280;74440;52.600;21.450;2024-01-30T03:47:23;103300;;;0.51;77
84283;BME280;74440;52.600;21.450;2024-01-30T03:51:36;103300;;;0.53;77
84283;BME280;74440;52.600;21.450;2024-01-30T03:55:37;103300;;;0.40;77
84283;BME280;74440;52.600;21.450;2024-01-30T03:59:42;103300;;;0.44;77
84283;BME280;74440;52.600;21.450;2024-01-30T04:03:48;103300;;;0.47;77
84283;BME280;74440;52.600;21.450;2024-01-30T04:07:50;103300;;;0.56;77
84283;BME280;74440;52.600;21.450;2024-01-30T04:12:07;103300;;;0.55;77
84283;BME280;74440;52.600;21.450;2024-01-30T04:20:23;103300;;;0.45;77
84283;BME280;74440;52.600;21.450;2024-01-30T04:24:24;103300;;;0.47;76
84283;BME280;74440;52.600;21.450;2024-01-30T04:28:31;103300;;;0.52;76
84283;BME280;74440;52.600;21.450;2024-01-30T04:32:39;103300;;;0.53;76
84283;BME280;74440;52.600;21.450;2024-01-30T04:36:44;103300;;;0.37;77
84283;BME280;74440;52.600;21.450;2024-01-30T04:40:47;103300;;;0.39;77
84283;BME280;74440;52.600;21.450;2024-01-30T04:44:49;103300;;;0.44;76
84283;BME280;74440;52.600;21.450;2024-01-30T04:48:50;103300;;;0.50;76
84283;BME280;74440;52.600;21.450;2024-01-30T04:52:52;103300;;;0.35;76
84283;BME280;74440;52.600;21.450;2024-01-30T04:56:54;103300;;;0.35;76
84283;BME280;74440;52.600;21.450;2024-01-30T05:00:55;103300;;;0.39;76
84283;BME280;74440;52.600;21.450;2024-01-30T05:04:57;103300;;;0.42;76
84283;BME280;74440;52.600;21.450;2024-01-30T05:09:09;103300;;;0.42;76
84283;BME280;74440;52.600;21.450;2024-01-30T05:13:10;103300;;;0.28;76
84283;BME280;74440;52.600;21.450;2024-01-30T05:17:14;103300;;;0.30;76
84283;BME280;74440;52.600;21.450;2024-01-30T05:21:16;103300;;;0.33;76
84283;BME280;74440;52.600;21.450;2024-01-30T05:25:17;103200;;;0.37;76
84283;BME280;74440;52.600;21.450;2024-01-30T05:29:19;103200;;;0.22;76
84283;BME280;74440;52.600;21.450;2024-01-30T05:33:21;103200;;;0.23;76
84283;BME280;74440;52.600;21.450;2024-01-30T05:37:22;103200;;;0.26;76
84283;BME280;74440;52.600;21.450;2024-01-30T05:41:24;103200;;;0.29;76
84283;BME280;74440;52.600;21.450;2024-01-30T05:45:38;103200;;;0.32;76
84283;BME280;74440;52.600;21.450;2024-01-30T05:49:40;103200;;;0.18;76
84283;BME280;74440;52.600;21.450;2024-01-30T05:53:41;103200;;;0.22;76
84283;BME280;74440;52.600;21.450;2024-01-30T05:57:43;103200;;;0.28;76
84283;BME280;74440;52.600;21.450;2024-01-30T06:01:48;103200;;;0.36;76
84283;BME280;74440;52.600;21.450;2024-01-30T06:05:50;103200;;;0.24;76
84283;BME280;74440;52.600;21.450;2024-01-30T06:09:51;103200;;;0.34;76
84283;BME280;74440;52.600;21.450;2024-01-30T06:13:53;103200;;;0.42;76
84283;BME280;74440;52.600;21.450;2024-01-30T06:17:54;103200;;;0.50;75
84283;BME280;74440;52.600;21.450;2024-01-30T06:22:08;103200;;;0.56;76
84283;BME280;74440;52.600;21.450;2024-01-30T06:26:09;103200;;;0.46;76
84283;BME280;74440;52.600;21.450;2024-01-30T06:30:12;103300;;;0.62;76
84283;BME280;74440;52.600;21.450;2024-01-30T06:34:14;103200;;;0.77;75
84283;BME280;74440;52.600;21.450;2024-01-30T06:38:15;103200;;;0.92;75
84283;BME280;74440;52.600;21.450;2024-01-30T06:42:17;103200;;;1.02;75
84283;BME280;74440;52.600;21.450;2024-01-30T06:46:18;103200;;;1.68;73
84283;BME280;74440;52.600;21.450;2024-01-30T06:50:20;103200;;;2.55;71
84283;BME280;74440;52.600;21.450;2024-01-30T06:54:21;103200;;;3.52;69
84283;BME280;74440;52.600;21.450;2024-01-30T06:58:38;103200;;;4.84;66
84283;BME280;74440;52.600;21.450;2024-01-30T07:02:39;103200;;;5.02;63
84283;BME280;74440;52.600;21.450;2024-01-30T07:06:41;103200;;;4.44;63
84283;BME280;74440;52.600;21.450;2024-01-30T07:10:43;103200;;;3.93;63
84283;BME280;74440;52.600;21.450;2024-01-30T07:14:45;103200;;;3.54;64
84283;BME280;74440;52.600;21.450;2024-01-30T07:18:47;103200;;;3.08;65
84283;BME280;74440;52.600;21.450;2024-01-30T07:22:48;103200;;;2.95;65
84283;BME280;74440;52.600;21.450;2024-01-30T07:26:50;103200;;;2.84;65
84283;BME280;74440;52.600;21.450;2024-01-30T07:30:51;103300;;;2.88;66
84283;BME280;74440;52.600;21.450;2024-01-30T07:35:07;103200;;;2.91;66
84283;BME280;74440;52.600;21.450;2024-01-30T07:39:09;103300;;;2.75;66
84283;BME280;74440;52.600;21.450;2024-01-30T07:43:11;103300;;;2.85;66
84283;BME280;74440;52.600;21.450;2024-01-30T07:47:13;103300;;;2.96;65
84283;BME280;74440;52.600;21.450;2024-01-30T07:51:14;103200;;;3.03;65
84283;BME280;74440;52.600;21.450;2024-01-30T07:55:16;103200;;;2.93;66
84283;BME280;74440;52.600;21.450;2024-01-30T07:59:17;103200;;;3.10;65
84283;BME280;74440;52.600;21.450;2024-01-30T08:03:22;103200;;;3.21;65
84283;BME280;74440;52.600;21.450;2024-01-30T08:07:23;103300;;;4.09;63
84283;BME280;74440;52.600;21.450;2024-01-30T08:11:37;103200;;;6.68;57
84283;BME280;74440;52.600;21.450;2024-01-30T08:15:38;103200;;;9.12;52
84283;BME280;74440;52.600;21.450;2024-01-30T08:19:39;103200;;;10.01;48
84283;BME280;74440;52.600;21.450;2024-01-30T08:23:41;103200;;;9.47;48
84283;BME280;74440;52.600;21.450;2024-01-30T08:27:44;103200;;;8.15;49
84283;BME280;74440;52.600;21.450;2024-01-30T08:31:46;103200;;;6.76;52
84283;BME280;74440;52.600;21.450;2024-01-30T08:35:47;103200;;;5.85;54
84283;BME280;74440;52.600;21.450;2024-01-30T08:39:48;103200;;;5.30;55
84283;BME280;74440;52.600;21.450;2024-01-30T08:43:50;103200;;;5.07;56
84283;BME280;74440;52.600;21.450;2024-01-30T08:48:06;103200;;;4.83;58
84283;BME280;74440;52.600;21.450;2024-01-30T08:52:08;103200;;;4.64;59
84283;BME280;74440;52.600;21.450;2024-01-30T08:56:10;103300;;;4.63;59
84283;BME280;74440;52.600;21.450;2024-01-30T09:00:12;103200;;;4.62;58
84283;BME280;74440;52.600;21.450;2024-01-30T09:04:14;103200;;;4.56;59
84283;BME280;74440;52.600;21.450;2024-01-30T09:08:15;103200;;;4.34;59
84283;BME280;74440;52.600;21.450;2024-01-30T09:12:17;103200;;;4.42;60
84283;BME280;74440;52.600;21.450;2024-01-30T09:16:18;103200;;;4.56;59
84283;BME280;74440;52.600;21.450;2024-01-30T09:20:20;103200;;;4.75;59
84283;BME280;74440;52.600;21.450;2024-01-30T09:24:35;103200;;;5.01;59
84283;BME280;74440;52.600;21.450;2024-01-30T09:28:37;103200;;;5.07;59
84283;BME280;74440;52.600;21.450;2024-01-30T09:32:39;103200;;;5.26;58
84283;BME280;74440;52.600;21.450;2024-01-30T09:36:41;103200;;;5.41;58
84283;BME280;74440;52.600;21.450;2024-01-30T09:40:43;103200;;;5.51;57
84283;BME280;74440;52.600;21.450;2024-01-30T09:44:47;103200;;;5.47;57
84283;BME280;74440;52.600;21.450;2024-01-30T09:48:52;103200;;;5.65;57
84283;BME280;74440;52.600;21.450;2024-01-30T09:52:56;103200;;;5.78;57
84283;BME280;74440;52.600;21.450;2024-01-30T09:56:59;103200;;;5.91;57
84283;BME280;74440;52.600;21.450;2024-01-30T10:01:06;103200;;;5.97;56
84283;BME280;74440;52.600;21.450;2024-01-30T10:05:08;103200;;;5.78;56
84283;BME280;74440;52.600;21.450;2024-01-30T10:09:10;103200;;;5.66;56
84283;BME280;74440;52.600;21.450;2024-01-30T10:13:12;103200;;;5.66;56
84283;BME280;74440;52.600;21.450;2024-01-30T10:17:13;103200;;;5.76;57
84283;BME280;74440;52.600;21.450;2024-01-30T10:21:15;103200;;;5.75;57
84283;BME280;74440;52.600;21.450;2024-01-30T10:25:17;103200;;;5.93;56
84283;BME280;74440;52.600;21.450;2024-01-30T10:29:18;103200;;;6.15;56
84283;BME280;74440;52.600;21.450;2024-01-30T10:33:20;103200;;;6.51;55
84283;BME280;74440;52.600;21.450;2024-01-30T10:37:36;103200;;;6.81;54
84283;BME280;74440;52.600;21.450;2024-01-30T10:41:45;103200;;;6.85;54
84283;BME280;74440;52.600;21.450;2024-01-30T10:45:52;103200;;;7.01;54
84283;BME280;74440;52.600;21.450;2024-01-30T10:49:55;103100;;;7.04;53
84283;BME280;74440;52.600;21.450;2024-01-30T10:53:57;103200;;;6.92;53
84283;BME280;74440;52.600;21.450;2024-01-30T10:58:08;103100;;;6.87;54
84283;BME280;74440;52.600;21.450;2024-01-30T11:02:13;103100;;;6.73;53
84283;BME280;74440;52.600;21.450;2024-01-30T11:06:15;103100;;;6.70;53
84283;BME280;74440;52.600;21.450;2024-01-30T11:10:19;103100;;;7.06;53
84283;BME280;74440;52.600;21.450;2024-01-30T11:14:24;103100;;;7.71;52
84283;BME280;74440;52.600;21.450;2024-01-30T11:18:39;103100;;;8.55;49
84283;BME280;74440;52.600;21.450;2024-01-30T11:22:42;103100;;;9.22;48
84283;BME280;74440;52.600;21.450;2024-01-30T11:26:44;103100;;;10.01;46
84283;BME280;74440;52.600;21.450;2024-01-30T11:30:46;103100;;;10.80;45
84283;BME280;74440;52.600;21.450;2024-01-30T11:34:51;103100;;;11.92;43
84283;BME280;74440;52.600;21.450;2024-01-30T11:38:54;103100;;;12.35;41
84283;BME280;74440;52.600;21.450;2024-01-30T11:43:00;103100;;;12.66;40
84283;BME280;74440;52.600;21.450;2024-01-30T11:47:02;103100;;;13.28;40
84283;BME280;74440;52.600;21.450;2024-01-30T11:51:05;103100;;;14.22;39
84283;BME280;74440;52.600;21.450;2024-01-30T11:55:10;103100;;;15.04;36
84283;BME280;74440;52.600;21.450;2024-01-30T11:59:12;103100;;;15.79;36
84283;BME280;74440;52.600;21.450;2024-01-30T12:03:15;103100;;;16.44;35
84283;BME280;74440;52.600;21.450;2024-01-30T12:07:16;103100;;;16.79;34
84283;BME280;74440;52.600;21.450;2024-01-30T12:11:18;103100;;;16.79;33
84283;BME280;74440;52.600;21.450;2024-01-30T12:15:21;103100;;;16.89;32
84283;BME280;74440;52.600;21.450;2024-01-30T12:19:24;103100;;;16.89;32
84283;BME280;74440;52.600;21.450;2024-01-30T12:23:29;103100;;;17.07;32
84283;BME280;74440;52.600;21.450;2024-01-30T12:27:30;103100;;;17.06;31
84283;BME280;74440;52.600;21.450;2024-01-30T12:31:42;103100;;;17.15;30
84283;BME280;74440;52.600;21.450;2024-01-30T12:35:48;103100;;;16.96;30
84283;BME280;74440;52.600;21.450;2024-01-30T12:39:52;103100;;;16.91;31
84283;BME280;74440;52.600;21.450;2024-01-30T12:43:56;103100;;;16.88;31
84283;BME280;74440;52.600;21.450;2024-01-30T12:47:57;103000;;;16.79;31
84283;BME280;74440;52.600;21.450;2024-01-30T12:52:11;103100;;;16.95;30
84283;BME280;74440;52.600;21.450;2024-01-30T12:56:13;103100;;;17.10;31
84283;BME280;74440;52.600;21.450;2024-01-30T13:00:16;103100;;;17.06;30
84283;BME280;74440;52.600;21.450;2024-01-30T13:06:05;103000;;;15.31;32
84283;BME280;74440;52.600;21.450;2024-01-30T13:10:07;103000;;;13.94;33
84283;BME280;74440;52.600;21.450;2024-01-30T13:14:08;103000;;;12.80;35
84283;BME280;74440;52.600;21.450;2024-01-30T13:18:10;103000;;;12.04;37
84283;BME280;74440;52.600;21.450;2024-01-30T13:22:11;103000;;;11.25;38
84283;BME280;74440;52.600;21.450;2024-01-30T13:26:13;103000;;;11.33;39
84283;BME280;74440;52.600;21.450;2024-01-30T13:30:14;103000;;;10.98;39
84283;BME280;74440;52.600;21.450;2024-01-30T13:34:16;103000;;;10.47;40
84283;BME280;74440;52.600;21.450;2024-01-30T13:38:34;103000;;;10.10;41
84283;BME280;74440;52.600;21.450;2024-01-30T13:42:36;103000;;;9.69;42
84283;BME280;74440;52.600;21.450;2024-01-30T13:46:37;103000;;;9.45;43
84283;BME280;74440;52.600;21.450;2024-01-30T13:50:40;103000;;;9.23;43
84283;BME280;74440;52.600;21.450;2024-01-30T13:54:41;103000;;;9.10;44
84283;BME280;74440;52.600;21.450;2024-01-30T13:58:42;103000;;;8.74;44
84283;BME280;74440;52.600;21.450;2024-01-30T14:02:44;103000;;;8.57;45
84283;BME280;74440;52.600;21.450;2024-01-30T14:06:46;103000;;;8.45;45
84283;BME280;74440;52.600;21.450;2024-01-30T14:10:47;103000;;;8.34;46
84283;BME280;74440;52.600;21.450;2024-01-30T14:15:04;103000;;;8.22;46
84283;BME280;74440;52.600;21.450;2024-01-30T14:19:05;103000;;;7.91;47
84283;BME280;74440;52.600;21.450;2024-01-30T14:23:07;103000;;;7.80;47
84283;BME280;74440;52.600;21.450;2024-01-30T14:27:10;103000;;;7.71;47
84283;BME280;74440;52.600;21.450;2024-01-30T14:31:11;103000;;;7.64;47
84283;BME280;74440;52.600;21.450;2024-01-30T14:35:12;103000;;;7.34;48
84283;BME280;74440;52.600;21.450;2024-01-30T14:39:14;103000;;;7.23;48
84283;BME280;74440;52.600;21.450;2024-01-30T14:43:15;103000;;;7.15;49
84283;BME280;74440;52.600;21.450;2024-01-30T14:47:17;103000;;;7.08;49
84283;BME280;74440;52.600;21.450;2024-01-30T14:51:32;103000;;;6.95;50
84283;BME280;74440;52.600;21.450;2024-01-30T14:55:34;103000;;;6.68;50
84283;BME280;74440;52.600;21.450;2024-01-30T14:59:36;103000;;;6.60;50
84283;BME280;74440;52.600;21.450;2024-01-30T15:03:37;103000;;;6.56;51
84283;BME280;74440;52.600;21.450;2024-01-30T15:07:41;103000;;;6.50;51
84283;BME280;74440;52.600;21.450;2024-01-30T15:11:44;103000;;;6.21;51
84283;BME280;74440;52.600;21.450;2024-01-30T15:15:46;103000;;;6.13;52
84283;BME280;74440;52.600;21.450;2024-01-30T15:19:50;103000;;;6.05;52
84283;BME280;74440;52.600;21.450;2024-01-30T15:23:52;103000;;;6.02;52
84283;BME280;74440;52.600;21.450;2024-01-30T15:28:02;103000;;;5.95;53
84283;BME280;74440;52.600;21.450;2024-01-30T15:32:04;103000;;;5.72;53
84283;BME280;74440;52.600;21.450;2024-01-30T15:36:06;103000;;;5.69;55
84283;BME280;74440;52.600;21.450;2024-01-30T15:40:08;103000;;;5.77;54
84283;BME280;74440;52.600;21.450;2024-01-30T15:44:09;103000;;;5.77;54
84283;BME280;74440;52.600;21.450;2024-01-30T15:48:11;103000;;;5.51;55
84283;BME280;74440;52.600;21.450;2024-01-30T15:52:12;103000;;;5.46;55
84283;BME280;74440;52.600;21.450;2024-01-30T15:56:18;103000;;;5.45;55
84283;BME280;74440;52.600;21.450;2024-01-30T16:00:20;103000;;;5.45;55
84283;BME280;74440;52.600;21.450;2024-01-30T16:04:31;103000;;;5.40;55
84283;BME280;74440;52.600;21.450;2024-01-30T16:08:32;103000;;;5.20;56
84283;BME280;74440;52.600;21.450;2024-01-30T16:12:34;103000;;;5.18;56
84283;BME280;74440;52.600;21.450;2024-01-30T16:16:36;103000;;;5.17;56
84283;BME280;74440;52.600;21.450;2024-01-30T16:20:39;103000;;;5.18;56
84283;BME280;74440;52.600;21.450;2024-01-30T16:24:42;103000;;;4.97;56
84283;BME280;74440;52.600;21.450;2024-01-30T16:28:44;103000;;;4.97;56
84283;BME280;74440;52.600;21.450;2024-01-30T16:32:45;103000;;;4.97;56
84283;BME280;74440;52.600;21.450;2024-01-30T16:36:47;103000;;;4.97;56
84283;BME280;74440;52.600;21.450;2024-01-30T16:41:01;103000;;;4.92;56
84283;BME280;74440;52.600;21.450;2024-01-30T16:45:02;103000;;;4.72;57
84283;BME280;74440;52.600;21.450;2024-01-30T16:49:04;103000;;;4.73;57
84283;BME280;74440;52.600;21.450;2024-01-30T16:53:05;103000;;;4.74;57
84283;BME280;74440;52.600;21.450;2024-01-30T16:57:06;103000;;;4.76;57
84283;BME280;74440;52.600;21.450;2024-01-30T17:01:08;103000;;;4.54;57
84283;BME280;74440;52.600;21.450;2024-01-30T17:05:09;103000;;;4.51;57
84283;BME280;74440;52.600;21.450;2024-01-30T17:09:10;103000;;;4.50;57
84283;BME280;74440;52.600;21.450;2024-01-30T17:13:12;103000;;;4.52;57
84283;BME280;74440;52.600;21.450;2024-01-30T17:17:30;103000;;;4.45;58
84283;BME280;74440;52.600;21.450;2024-01-30T17:21:31;103000;;;4.24;58
84283;BME280;74440;52.600;21.450;2024-01-30T17:25:37;103000;;;4.21;58
84283;BME280;74440;52.600;21.450;2024-01-30T17:29:39;103000;;;4.19;58
84283;BME280;74440;52.600;21.450;2024-01-30T17:33:41;103000;;;4.21;58
84283;BME280;74440;52.600;21.450;2024-01-30T17:37:48;103000;;;4.01;59
84283;BME280;74440;52.600;21.450;2024-01-30T17:41:49;103000;;;3.99;59
84283;BME280;74440;52.600;21.450;2024-01-30T17:45:52;103000;;;3.99;59
84283;BME280;74440;52.600;21.450;2024-01-30T17:49:54;103000;;;4.03;59
84283;BME280;74440;52.600;21.450;2024-01-30T17:54:04;103000;;;4.03;59
84283;BME280;74440;52.600;21.450;2024-01-30T17:58:05;103000;;;3.83;59
84283;BME280;74440;52.600;21.450;2024-01-30T18:02:07;103000;;;3.81;59
84283;BME280;74440;52.600;21.450;2024-01-30T18:06:13;103000;;;3.82;59
84283;BME280;74440;52.600;21.450;2024-01-30T18:10:16;103000;;;3.83;59
84283;BME280;74440;52.600;21.450;2024-01-30T18:14:35;103000;;;3.79;60
84283;BME280;74440;52.600;21.450;2024-01-30T18:18:37;103000;;;3.57;60
84283;BME280;74440;52.600;21.450;2024-01-30T18:22:39;103000;;;3.55;60
84283;BME280;74440;52.600;21.450;2024-01-30T18:26:45;103000;;;3.57;60
84283;BME280;74440;52.600;21.450;2024-01-30T18:30:47;103000;;;3.63;60
84283;BME280;74440;52.600;21.450;2024-01-30T18:34:48;103000;;;3.42;60
84283;BME280;74440;52.600;21.450;2024-01-30T18:38:50;103000;;;3.42;60
84283;BME280;74440;52.600;21.450;2024-01-30T18:42:52;103000;;;3.46;60
84283;BME280;74440;52.600;21.450;2024-01-30T18:46:53;103000;;;3.49;60
84283;BME280;74440;52.600;21.450;2024-01-30T18:51:05;102900;;;3.50;61
84283;BME280;74440;52.600;21.450;2024-01-30T18:55:07;102900;;;3.31;61
84283;BME280;74440;52.600;21.450;2024-01-30T18:59:12;102900;;;3.38;63
84283;BME280;74440;52.600;21.450;2024-01-30T19:03:19;102900;;;3.49;61
84283;BME280;74440;52.600;21.450;2024-01-30T19:07:22;102900;;;3.51;61
84283;BME280;74440;52.600;21.450;2024-01-30T19:11:36;102900;;;3.50;61
84283;BME280;74440;52.600;21.450;2024-01-30T19:15:38;102900;;;3.29;61
84283;BME280;74440;52.600;21.450;2024-01-30T19:19:39;102900;;;3.29;61
84283;BME280;74440;52.600;21.450;2024-01-30T19:23:41;102900;;;3.34;61
84283;BME280;74440;52.600;21.450;2024-01-30T19:27:42;102900;;;3.39;61
84283;BME280;74440;52.600;21.450;2024-01-30T19:31:44;102900;;;3.19;61
84283;BME280;74440;52.600;21.450;2024-01-30T19:35:45;102900;;;3.22;61
84283;BME280;74440;52.600;21.450;2024-01-30T19:39:47;102900;;;3.28;61
84283;BME280;74440;52.600;21.450;2024-01-30T19:43:50;102900;;;3.34;61
84283;BME280;74440;52.600;21.450;2024-01-30T19:48:06;102900;;;3.40;61
84283;BME280;74440;52.600;21.450;2024-01-30T19:52:08;102900;;;3.23;61
84283;BME280;74440;52.600;21.450;2024-01-30T19:56:11;102900;;;3.28;61
84283;BME280;74440;52.600;21.450;2024-01-30T20:00:13;102900;;;3.31;61
84283;BME280;74440;52.600;21.450;2024-01-30T20:04:15;102900;;;3.37;61
84283;BME280;74440;52.600;21.450;2024-01-30T20:08:16;102900;;;3.21;61
84283;BME280;74440;52.600;21.450;2024-01-30T20:12:17;102900;;;3.24;61
84283;BME280;74440;52.600;21.450;2024-01-30T20:16:19;102900;;;3.31;61
84283;BME280;74440;52.600;21.450;2024-01-30T20:20:20;102900;;;3.40;61
84283;BME280;74440;52.600;21.450;2024-01-30T20:24:36;102900;;;3.45;61
84283;BME280;74440;52.600;21.450;2024-01-30T20:28:37;102900;;;3.25;61
84283;BME280;74440;52.600;21.450;2024-01-30T20:32:39;102900;;;3.30;61
84283;BME280;74440;52.600;21.450;2024-01-30T20:36:43;102900;;;3.34;61
84283;BME280;74440;52.600;21.450;2024-01-30T20:40:45;102900;;;3.42;61
84283;BME280;74440;52.600;21.450;2024-01-30T20:44:46;102900;;;3.27;61
84283;BME280;74440;52.600;21.450;2024-01-30T20:48:48;102900;;;3.27;61
84283;BME280;74440;52.600;21.450;2024-01-30T20:52:49;102900;;;3.32;61
84283;BME280;74440;52.600;21.450;2024-01-30T20:56:51;102900;;;3.39;61
84283;BME280;74440;52.600;21.450;2024-01-30T21:01:05;102900;;;3.46;60
84283;BME280;74440;52.600;21.450;2024-01-30T21:05:08;102900;;;3.30;61
84283;BME280;74440;52.600;21.450;2024-01-30T21:09:10;102900;;;3.34;61
84283;BME280;74440;52.600;21.450;2024-01-30T21:13:11;102900;;;3.38;61
84283;BME280;74440;52.600;21.450;2024-01-30T21:17:12;102900;;;3.47;61
84283;BME280;74440;52.600;21.450;2024-01-30T21:21:16;102900;;;3.33;61
84283;BME280;74440;52.600;21.450;2024-01-30T21:25:18;102900;;;3.39;61
84283;BME280;74440;52.600;21.450;2024-01-30T21:29:20;102900;;;3.43;61
84283;BME280;74440;52.600;21.450;2024-01-30T21:33:22;102900;;;3.53;61
84283;BME280;74440;52.600;21.450;2024-01-30T21:37:35;102900;;;3.54;61
84283;BME280;74440;52.600;21.450;2024-01-30T21:41:37;102900;;;3.34;61
84283;BME280;74440;52.600;21.450;2024-01-30T21:45:38;102900;;;3.35;61
84283;BME280;74440;52.600;21.450;2024-01-30T21:49:40;102900;;;3.36;61
84283;BME280;74440;52.600;21.450;2024-01-30T21:53:42;102900;;;3.39;61
84283;BME280;74440;52.600;21.450;2024-01-30T21:57:43;102900;;;3.19;62
84283;BME280;74440;52.600;21.450;2024-01-30T22:01:44;102900;;;3.20;62
84283;BME280;74440;52.600;21.450;2024-01-30T22:05:46;102900;;;3.21;62
84283;BME280;74440;52.600;21.450;2024-01-30T22:09:48;102900;;;3.24;62
84283;BME280;74440;52.600;21.450;2024-01-30T22:14:04;102900;;;3.24;62
84283;BME280;74440;52.600;21.450;2024-01-30T22:18:06;102900;;;3.04;62
84283;BME280;74440;52.600;21.450;2024-01-30T22:22:13;102900;;;3.06;62
84283;BME280;74440;52.600;21.450;2024-01-30T22:26:15;102900;;;3.06;62
84283;BME280;74440;52.600;21.450;2024-01-30T22:30:16;102900;;;3.10;62
84283;BME280;74440;52.600;21.450;2024-01-30T22:34:18;102900;;;2.91;63
84283;BME280;74440;52.600;21.450;2024-01-30T22:38:21;102900;;;2.92;63
84283;BME280;74440;52.600;21.450;2024-01-30T22:42:22;102900;;;2.94;63
84283;BME280;74440;52.600;21.450;2024-01-30T22:46:23;102900;;;2.98;63
84283;BME280;74440;52.600;21.450;2024-01-30T22:50:36;102900;;;2.99;63
84283;BME280;74440;52.600;21.450;2024-01-30T22:54:37;102900;;;2.79;63
84283;BME280;74440;52.600;21.450;2024-01-30T22:58:38;102800;;;2.80;63
84283;BME280;74440;52.600;21.450;2024-01-30T23:02:42;102800;;;2.82;63
84283;BME280;74440;52.600;21.450;2024-01-30T23:06:44;102800;;;2.87;63